Aérodrome :
LOGIN :

S'inscrire | Disclaimer

   EN    FR    IT 

 










Légende :    VFR   VFR Marginal   IFR   IFR Intensif   IFR Très Intensif
Visi : 
Plafond : 
>= 8 km
>= 3000ft
5 à 8 km
1000 à 3000 ft
1500m à 5 km
500 à 1000 ft
800 à 1500m
200 à 500 ft
< 800m
< 200 ft
Symboles :   Orages  Brouillard  Fortes neiges  Fortes précipitations  Vent > 20 kt
SIGMETs :   Divers  Orages  Givrage  Turbulence  Onde Orograph.  Cendres Volcan.






- Altitude de l'aérodrome : 160 ft
- Code IATA : LRT


LFRH - Lorient Lann Bihoue

DERNIER METAR :
  • 231130Z AUTO 25017KT 4100 BR OVC003 12/11 Q1029 TEMPO 1400 RADZ VV/// BECMG 24015G28KT

METARs EXPIRÉS :
  • 231100Z AUTO 25017KT 2700 BR OVC002 11/11 Q1029 TEMPO 1400 RADZ VV/// BECMG 24015G28KT
  • 231030Z AUTO 26016KT 5000 BR OVC003 11/11 Q1029 TEMPO 1400 RADZ VV/// BECMG 24015G28KT
  • 231000Z AUTO 26017KT 3600 BR OVC003 11/11 Q1029 TEMPO 1400 RADZ BECMG 24015G28KT
  • 230930Z AUTO 25017KT 2400 BR OVC003 11/11 Q1029 TEMPO 1400 RADZ BECMG 24015G28KT
  • 230900Z AUTO 25019KT 5000 BR OVC003 11/11 Q1028 TEMPO 1400 RADZ BECMG 24015G28KT

TAF TAF LFRH
Valide du 23 à 12h jusqu'au 24 à 12h UTC


231100Z 2312/2412 25015G25KT 4000 DZ BR BKN003 OVC005
TEMPO 2312/2408 1500 DZ BR OVC002
PROB40
TEMPO 2312/2405 1000 DZ BR VV///
BECMG 2409/2412 23018G30KT 9999 BKN010 BKN020



MET'MAP, la Météo Aéronautique d'un coup d'oeil ! - Copyright ORBIFLY Décembre 2007 - Disclaimer

ORBIFLY MET'MAP TEAM :

Programmation & Développement : Alexandra Zaïnal
Sur une idée originale de : Baudouin d'Aumeries
Assistance à la programmation : Marc-Olivier Méhu
Soutien technique & logistique : Manuel Goepfert

Contact : metmap@orbifly.com




SOURCES & CREDITS :

   NOAA